Weather at Vancouver International Airport

Public forecast

Using degrees Celsius for public forecast. Weather courtesy of forecast.io.

Current aviation weather report (METAR) for Vancouver International Airport

2024/02/24 16:00 (retrieved 41 minutes ago)

CYVR 241600Z 00000KT 20SM FEW045 SCT110 OVC130 07/06 A3011 RMK SC1AC2AC5 SLP197

Aviation forecast (TAF) for Vancouver International Airport

2024/02/24 15:45 (retrieved 56 minutes ago)

TAF CYVR 241440Z 2415/2518 26005KT P6SM SCT030 OVC100 TEMPO 2415/2417 5SM -SHRA BR SCT008 BKN020 FM241700 VRB03KT P6SM SCT020 BKN030 TEMPO 2417/2420 5SM -RA BR BKN015 BECMG 2418/2420 16008KT FM242000 16008KT P6SM -RA SCT005 SCT015 OVC030 TEMPO 2420/2503 5SM -RA BR BKN005 BKN015 FM250300 19008KT P6SM BKN030 TEMPO 2503/2511 4SM -RA BR BKN020 FM251100 16010KT P6SM -RA SCT004 OVC025 TEMPO 2511/2518 2SM -RA BR BKN003 RMK NXT FCST BY 241800Z